Glade Springs, West Virginia
Current Conditions -  °F | °C
As of 8:51 PM on Sunday 25 Jan 2015 (Local Time) from KBKW Reporting Station
Overcast Overcast  
Wind Chill: 37°   Ceiling: 3500
Heat Index: 40°   Visibility: 10mi
Dew Point: 32°   Wind: 5mph
Humidity: 73%   Direction: 190°S
Pressure: 29.71"   Gusts: NA
Location:  37.7247°N, 81.1394°W
Report Text: KBKW 260151Z AUTO 19004KT 10SM SCT028 OVC035 04/00 A2971 RMK AO2 RAB27E44 SLP079 P0000 T00440000
Loading
Personal Weather Stations






























Interactive Weather Map New forecast layout! Learn more

10-Day Weather Forecast

Advertisements
Track Severe Weather on mobile